Time;durP1;ratioP1;P1;durP2;ratioP2;P2;SDS_P1;SDS_P2;PMS_P1;PMS_P2;Temp;Humidity;BMP_temperature;BMP_pressure;BME280_temperature;BME280_humidity;BME280_pressure;Samples;Min_cycle;Max_cycle;Signal;HPM_P1;HPM_P2
2023/10/09 00:02:14;;;;;;;2.67;1.23;;;;;;;;;;5120584;27;20445;-66
2023/10/09 00:04:42;;;;;;;3.20;2.00;;;;;;;;;;5126340;27;20479;-66
2023/10/09 00:07:10;;;;;;;4.03;1.73;;;;;;;;;;5124358;27;20995;-67
2023/10/09 00:09:46;;;;;;;5.30;1.47;;;;;;;;;;5123499;27;20807;-66
2023/10/09 00:12:15;;;;;;;4.03;1.43;;;;;;;;;;5122654;27;20448;-66
2023/10/09 00:14:47;;;;;;;4.30;2.10;;;;;;;;;;5127426;27;20659;-66
2023/10/09 00:17:18;;;;;;;4.83;2.37;;;;;;;;;;5129912;27;20893;-66
2023/10/09 00:19:47;;;;;;;6.77;2.70;;;;;;;;;;5124220;27;20452;-66
2023/10/09 00:22:26;;;;;;;3.90;1.70;;;;;;;;;;5119812;27;20963;-67
2023/10/09 00:27:36;;;;;;;5.90;2.13;;;;;;;;;;5118058;27;20428;-67
2023/10/09 00:30:06;;;;;;;3.20;1.00;;;;;;;;;;5125735;27;20546;-66
2023/10/09 00:32:33;;;;;;;4.43;1.50;;;;;;;;;;5126677;27;20873;-66
2023/10/09 00:35:35;;;;;;;7.10;2.37;;;;;;;;;;5127197;27;20478;-66
2023/10/09 00:37:51;;;;;;;3.90;1.20;;;;;;;;;;5123140;27;20450;-68
2023/10/09 00:40:23;;;;;;;4.80;2.33;;;;;;;;;;5126118;27;20451;-66
2023/10/09 00:42:55;;;;;;;4.20;1.97;;;;;;;;;;5123400;27;20479;-66
2023/10/09 00:45:28;;;;;;;5.47;2.40;;;;;;;;;;5120074;27;20471;-66
2023/10/09 00:47:59;;;;;;;7.30;2.00;;;;;;;;;;5123602;27;20450;-67
2023/10/09 00:50:26;;;;;;;3.37;1.27;;;;;;;;;;5124247;27;20459;-66
2023/10/09 00:53:01;;;;;;;10.10;2.20;;;;;;;;;;5125375;27;20481;-66
2023/10/09 00:55:37;;;;;;;7.60;2.00;;;;;;;;;;5127037;27;20781;-66
2023/10/09 00:58:12;;;;;;;5.93;2.00;;;;;;;;;;5120216;27;20550;-66
2023/10/09 01:00:47;;;;;;;5.67;2.23;;;;;;;;;;5121717;27;20430;-66
2023/10/09 01:03:20;;;;;;;3.23;1.47;;;;;;;;;;5118089;27;20519;-66
2023/10/09 01:05:56;;;;;;;5.20;1.37;;;;;;;;;;5130140;27;20447;-66
2023/10/09 01:08:29;;;;;;;3.10;1.20;;;;;;;;;;5121047;27;20547;-66
2023/10/09 01:10:58;;;;;;;6.23;1.60;;;;;;;;;;5128036;27;20540;-66
2023/10/09 01:13:38;;;;;;;6.83;2.33;;;;;;;;;;5123583;28;20481;-66
2023/10/09 01:16:06;;;;;;;3.73;2.00;;;;;;;;;;5127504;28;20882;-66
2023/10/09 01:18:38;;;;;;;4.47;1.90;;;;;;;;;;5122278;28;20439;-67
2023/10/09 01:21:05;;;;;;;3.40;1.53;;;;;;;;;;5125642;28;20460;-65
2023/10/09 01:23:34;;;;;;;5.23;1.90;;;;;;;;;;5119927;27;20483;-66
2023/10/09 01:26:01;;;;;;;3.40;1.53;;;;;;;;;;5122854;27;20439;-66
2023/10/09 01:28:28;;;;;;;5.17;1.80;;;;;;;;;;5126523;27;20462;-66
2023/10/09 01:30:55;;;;;;;9.43;2.67;;;;;;;;;;5131133;27;20454;-66
2023/10/09 01:33:24;;;;;;;4.00;2.10;;;;;;;;;;5127149;27;20489;-67
2023/10/09 01:35:56;;;;;;;3.50;1.80;;;;;;;;;;5125835;27;20443;-65
2023/10/09 01:38:40;;;;;;;4.63;2.27;;;;;;;;;;5128152;27;20510;-66
2023/10/09 01:41:09;;;;;;;5.00;2.90;;;;;;;;;;5133027;27;20477;-65
2023/10/09 01:43:38;;;;;;;9.30;1.80;;;;;;;;;;5138891;27;20960;-67
2023/10/09 01:46:05;;;;;;;3.07;1.60;;;;;;;;;;5133618;27;20453;-66
2023/10/09 01:48:35;;;;;;;3.90;1.50;;;;;;;;;;5116268;27;20447;-65
2023/10/09 01:51:05;;;;;;;3.23;1.40;;;;;;;;;;5123790;27;20458;-65
2023/10/09 01:53:33;;;;;;;4.70;1.97;;;;;;;;;;5123609;27;20596;-66
2023/10/09 01:56:14;;;;;;;4.23;1.50;;;;;;;;;;5131983;27;20459;-67
2023/10/09 01:58:42;;;;;;;7.60;2.00;;;;;;;;;;5133106;27;20454;-65
2023/10/09 02:01:10;;;;;;;5.70;1.97;;;;;;;;;;5127953;27;20890;-65
2023/10/09 02:03:38;;;;;;;3.93;2.30;;;;;;;;;;5123968;27;20462;-66
2023/10/09 02:06:18;;;;;;;6.23;2.00;;;;;;;;;;5122973;27;20463;-66
2023/10/09 02:08:49;;;;;;;6.67;1.60;;;;;;;;;;5128424;27;20477;-65
2023/10/09 02:11:24;;;;;;;8.27;1.90;;;;;;;;;;5134804;27;20936;-65
2023/10/09 02:13:55;;;;;;;3.30;1.43;;;;;;;;;;5125865;27;20485;-64
2023/10/09 02:16:29;;;;;;;4.00;2.20;;;;;;;;;;5131103;27;20450;-65
2023/10/09 02:18:58;;;;;;;6.73;1.77;;;;;;;;;;5131879;27;20446;-65
2023/10/09 02:21:39;;;;;;;6.60;1.73;;;;;;;;;;5129651;27;20454;-65
2023/10/09 02:24:12;;;;;;;6.40;2.00;;;;;;;;;;5146639;22;20494;-65
2023/10/09 02:27:06;;;;;;;3.53;1.63;;;;;;;;;;5134174;27;20451;-64
2023/10/09 02:29:35;;;;;;;4.77;2.03;;;;;;;;;;5129509;27;20497;-65
2023/10/09 02:32:16;;;;;;;4.60;2.47;;;;;;;;;;5135349;27;20460;-65
2023/10/09 02:34:46;;;;;;;6.33;1.97;;;;;;;;;;5123917;27;20479;-65
2023/10/09 02:37:13;;;;;;;3.83;1.60;;;;;;;;;;5107911;27;20459;-65
2023/10/09 02:39:48;;;;;;;4.77;1.50;;;;;;;;;;5116537;27;20439;-65
2023/10/09 02:42:25;;;;;;;7.03;1.70;;;;;;;;;;5108059;27;20842;-65
2023/10/09 02:44:53;;;;;;;4.47;1.67;;;;;;;;;;5105566;27;20881;-65
2023/10/09 02:47:24;;;;;;;2.73;1.80;;;;;;;;;;5110168;27;20499;-65
2023/10/09 02:49:51;;;;;;;4.90;1.23;;;;;;;;;;5103833;27;20453;-65
2023/10/09 02:52:24;;;;;;;2.97;1.93;;;;;;;;;;5096938;27;20467;-64
2023/10/09 02:54:59;;;;;;;3.00;1.00;;;;;;;;;;5104956;27;20507;-65
2023/10/09 02:57:29;;;;;;;3.80;1.83;;;;;;;;;;5116318;27;20486;-65
2023/10/09 02:59:56;;;;;;;4.30;2.03;;;;;;;;;;5105860;27;20494;-64
2023/10/09 03:02:24;;;;;;;4.17;2.20;;;;;;;;;;5110761;27;20531;-64
2023/10/09 03:04:54;;;;;;;5.50;1.47;;;;;;;;;;5101008;28;20555;-66
2023/10/09 03:07:23;;;;;;;4.83;2.10;;;;;;;;;;5110857;27;20456;-64
2023/10/09 03:09:50;;;;;;;10.00;1.87;;;;;;;;;;5108094;27;20532;-64
2023/10/09 03:12:18;;;;;;;3.73;1.60;;;;;;;;;;5101494;27;20492;-65
2023/10/09 03:14:47;;;;;;;4.27;1.37;;;;;;;;;;5115240;27;20478;-65
2023/10/09 03:17:14;;;;;;;2.07;1.17;;;;;;;;;;5108595;27;20464;-64
2023/10/09 03:19:43;;;;;;;4.43;1.87;;;;;;;;;;5118357;27;20479;-64
2023/10/09 03:22:10;;;;;;;3.33;1.63;;;;;;;;;;5110380;28;20455;-64
2023/10/09 03:24:37;;;;;;;4.07;1.50;;;;;;;;;;5112996;27;20462;-67
2023/10/09 03:27:04;;;;;;;5.67;2.10;;;;;;;;;;5110041;27;20448;-64
2023/10/09 03:29:33;;;;;;;3.93;1.77;;;;;;;;;;5111117;27;20525;-65
2023/10/09 03:32:01;;;;;;;10.73;3.20;;;;;;;;;;5106661;27;20441;-65
2023/10/09 03:34:30;;;;;;;3.30;1.83;;;;;;;;;;5115569;27;20594;-65
2023/10/09 03:37:05;;;;;;;10.03;2.07;;;;;;;;;;5103270;28;20947;-65
2023/10/09 03:39:38;;;;;;;3.00;1.17;;;;;;;;;;5113020;27;21004;-65
2023/10/09 03:42:05;;;;;;;3.70;2.10;;;;;;;;;;5117851;27;20458;-64
2023/10/09 03:44:34;;;;;;;5.23;2.33;;;;;;;;;;5101287;28;20456;-65
2023/10/09 03:47:04;;;;;;;4.47;1.83;;;;;;;;;;5093903;28;20877;-66
2023/10/09 03:49:31;;;;;;;6.67;1.90;;;;;;;;;;5111842;28;20534;-65
2023/10/09 03:51:59;;;;;;;6.30;2.13;;;;;;;;;;5110211;28;20505;-65
2023/10/09 03:54:29;;;;;;;10.73;1.83;;;;;;;;;;5105163;28;20978;-64
2023/10/09 03:56:58;;;;;;;5.40;2.27;;;;;;;;;;5107824;28;20982;-64
2023/10/09 03:59:30;;;;;;;7.00;1.67;;;;;;;;;;5102261;27;20461;-64
2023/10/09 04:01:58;;;;;;;2.27;1.10;;;;;;;;;;5120071;27;20448;-65
2023/10/09 04:04:28;;;;;;;3.53;1.67;;;;;;;;;;5116387;27;20547;-64
2023/10/09 04:06:55;;;;;;;5.77;2.07;;;;;;;;;;5107907;27;20530;-65
2023/10/09 04:09:35;;;;;;;3.30;1.40;;;;;;;;;;5105742;27;20950;-65
2023/10/09 04:12:21;;;;;;;5.07;1.70;;;;;;;;;;5105213;28;20531;-65
2023/10/09 04:14:50;;;;;;;4.47;1.83;;;;;;;;;;5107955;27;20511;-66
2023/10/09 04:17:33;;;;;;;9.40;1.90;;;;;;;;;;5101487;28;20445;-66
2023/10/09 04:22:51;;;;;;;4.80;1.93;;;;;;;;;;5108495;27;20446;-66
2023/10/09 04:25:25;;;;;;;3.60;1.43;;;;;;;;;;5096255;27;20541;-66
2023/10/09 04:27:53;;;;;;;9.13;1.67;;;;;;;;;;5105387;28;20499;-66
2023/10/09 04:30:23;;;;;;;9.00;1.53;;;;;;;;;;5109913;27;20946;-66
2023/10/09 04:32:50;;;;;;;7.83;1.93;;;;;;;;;;5100628;28;20455;-66
2023/10/09 04:35:24;;;;;;;6.60;2.40;;;;;;;;;;5115054;27;20484;-66
2023/10/09 04:38:00;;;;;;;3.00;1.40;;;;;;;;;;5100627;28;20452;-66
2023/10/09 04:43:21;;;;;;;3.40;1.87;;;;;;;;;;5109081;27;20637;-66
2023/10/09 04:46:07;;;;;;;4.60;1.43;;;;;;;;;;5079556;28;20462;-67
2023/10/09 04:48:37;;;;;;;9.30;2.07;;;;;;;;;;5076642;28;20436;-66
2023/10/09 04:51:34;;;;;;;5.40;1.40;;;;;;;;;;5075008;28;20529;-65
2023/10/09 04:54:12;;;;;;;2.90;1.40;;;;;;;;;;5078000;28;20603;-65
2023/10/09 04:56:51;;;;;;;4.90;1.43;;;;;;;;;;5080331;28;20445;-65
2023/10/09 04:59:24;;;;;;;6.67;2.30;;;;;;;;;;5076038;28;20826;-65
2023/10/09 05:01:58;;;;;;;3.53;1.57;;;;;;;;;;5084295;28;20560;-66
2023/10/09 05:04:39;;;;;;;6.80;1.97;;;;;;;;;;5082440;28;20485;-66
2023/10/09 05:07:22;;;;;;;5.03;2.00;;;;;;;;;;5075114;28;20511;-66
2023/10/09 05:09:55;;;;;;;2.83;1.07;;;;;;;;;;5075637;28;20445;-65
2023/10/09 05:12:26;;;;;;;3.47;1.77;;;;;;;;;;5075626;28;20657;-65
2023/10/09 05:15:08;;;;;;;4.90;2.17;;;;;;;;;;5083917;28;20476;-65
2023/10/09 05:17:35;;;;;;;3.93;1.30;;;;;;;;;;5076369;28;20844;-65
2023/10/09 05:22:58;;;;;;;8.63;2.00;;;;;;;;;;5080365;28;20550;-65
2023/10/09 05:25:53;;;;;;;3.90;1.47;;;;;;;;;;5083573;28;20507;-65
2023/10/09 05:28:25;;;;;;;1.87;1.30;;;;;;;;;;5078746;28;20843;-65
2023/10/09 05:31:02;;;;;;;3.83;1.93;;;;;;;;;;5080553;28;20487;-65
2023/10/09 05:33:29;;;;;;;5.73;1.83;;;;;;;;;;5070208;28;20790;-65
2023/10/09 05:36:14;;;;;;;2.80;1.60;;;;;;;;;;5079007;28;20445;-65
2023/10/09 05:38:46;;;;;;;2.93;1.40;;;;;;;;;;5078690;28;20452;-65
2023/10/09 05:47:22;;;;;;;3.60;2.00;;;;;;;;;;5071036;28;20508;-65
2023/10/09 05:49:46;;;;;;;3.67;1.43;;;;;;;;;;5076157;28;20532;-65
2023/10/09 06:03:23;;;;;;;5.03;1.23;;;;;;;;;;5051651;28;20489;-65
2023/10/09 06:06:01;;;;;;;6.17;2.07;;;;;;;;;;5064322;28;20869;-65
2023/10/09 06:09:09;;;;;;;2.83;1.57;;;;;;;;;;5060217;28;20453;-65
2023/10/09 06:14:24;;;;;;;2.73;1.10;;;;;;;;;;5025519;28;20513;-65
2023/10/09 06:16:59;;;;;;;3.10;1.93;;;;;;;;;;5024307;28;20435;-65
2023/10/09 06:19:31;;;;;;;5.23;1.73;;;;;;;;;;5038061;28;20461;-65
2023/10/09 06:22:56;;;;;;;8.17;1.37;;;;;;;;;;5068084;28;20487;-66
2023/10/09 06:25:11;;;;;;;4.97;1.70;;;;;;;;;;5059927;28;20462;-64
2023/10/09 06:30:26;;;;;;;5.27;1.70;;;;;;;;;;5057961;28;20454;-63
2023/10/09 06:33:19;;;;;;;7.80;2.57;;;;;;;;;;5059249;28;20465;-64
2023/10/09 06:35:54;;;;;;;4.57;1.50;;;;;;;;;;5060081;28;20437;-64
2023/10/09 06:38:33;;;;;;;3.80;2.13;;;;;;;;;;5059268;28;20458;-64
2023/10/09 06:43:47;;;;;;;4.27;2.17;;;;;;;;;;5054019;28;20466;-64
2023/10/09 06:49:28;;;;;;;5.20;2.00;;;;;;;;;;5056888;28;20491;-65
2023/10/09 06:51:55;;;;;;;4.60;1.70;;;;;;;;;;5062472;28;20445;-65
2023/10/09 06:54:25;;;;;;;11.70;1.77;;;;;;;;;;5062405;28;20532;-64
2023/10/09 07:00:51;;;;;;;3.17;1.83;;;;;;;;;;5062172;28;20811;-64
2023/10/09 07:02:31;;;;;;;7.60;3.37;;;;;;;;;;5060443;28;20461;-65
2023/10/09 07:05:10;;;;;;;3.50;1.27;;;;;;;;;;5058070;28;20470;-64
2023/10/09 07:07:50;;;;;;;10.30;2.40;;;;;;;;;;5066260;28;20442;-65
2023/10/09 07:10:39;;;;;;;7.87;2.27;;;;;;;;;;5063295;28;20537;-64
2023/10/09 07:13:05;;;;;;;8.30;2.00;;;;;;;;;;5063259;28;20803;-64
2023/10/09 07:18:40;;;;;;;3.33;1.17;;;;;;;;;;5057421;28;20466;-64
2023/10/09 07:21:11;;;;;;;4.17;1.43;;;;;;;;;;5055602;28;20477;-64
2023/10/09 07:23:48;;;;;;;3.77;1.60;;;;;;;;;;5058481;28;20486;-64
2023/10/09 07:26:25;;;;;;;2.77;1.30;;;;;;;;;;5052501;28;21034;-64
2023/10/09 07:29:00;;;;;;;5.03;2.10;;;;;;;;;;5065645;28;20442;-65
2023/10/09 07:31:39;;;;;;;10.07;2.90;;;;;;;;;;5060072;28;20461;-65
2023/10/09 07:34:30;;;;;;;3.33;1.67;;;;;;;;;;5057690;28;20496;-64
2023/10/09 07:36:56;;;;;;;5.40;1.83;;;;;;;;;;5058907;28;20556;-65
2023/10/09 07:39:34;;;;;;;3.77;1.47;;;;;;;;;;5060406;28;20491;-65
2023/10/09 07:42:14;;;;;;;5.67;1.80;;;;;;;;;;5067183;28;20492;-65
2023/10/09 07:44:46;;;;;;;4.93;2.23;;;;;;;;;;5057807;28;20605;-64
2023/10/09 07:47:19;;;;;;;4.93;1.50;;;;;;;;;;5059076;28;20453;-65
2023/10/09 07:49:53;;;;;;;2.70;1.60;;;;;;;;;;5066006;28;20544;-64
2023/10/09 07:52:21;;;;;;;3.90;1.30;;;;;;;;;;5061148;28;20462;-64
2023/10/09 07:54:52;;;;;;;5.37;1.83;;;;;;;;;;5056356;28;20468;-65
2023/10/09 07:57:25;;;;;;;6.70;1.57;;;;;;;;;;5062455;28;21015;-66
2023/10/09 08:00:00;;;;;;;5.53;1.77;;;;;;;;;;5061553;28;20488;-66
2023/10/09 08:02:32;;;;;;;5.83;1.27;;;;;;;;;;5056998;28;20472;-64
2023/10/09 08:05:03;;;;;;;6.70;2.07;;;;;;;;;;5065122;28;20518;-64
2023/10/09 08:07:35;;;;;;;4.53;1.57;;;;;;;;;;5060120;28;21025;-64
2023/10/09 08:12:58;;;;;;;5.50;1.60;;;;;;;;;;5061318;28;20449;-64
2023/10/09 08:15:28;;;;;;;10.63;3.00;;;;;;;;;;5058689;28;21026;-64
2023/10/09 08:17:58;;;;;;;4.03;1.90;;;;;;;;;;5065308;28;20441;-64
2023/10/09 08:20:25;;;;;;;5.90;2.20;;;;;;;;;;5061742;28;20457;-64
2023/10/09 08:22:55;;;;;;;7.90;3.20;;;;;;;;;;5060390;28;20473;-64
2023/10/09 08:25:26;;;;;;;5.63;1.80;;;;;;;;;;5054189;28;20462;-64
2023/10/09 08:27:58;;;;;;;5.90;1.80;;;;;;;;;;5063137;28;20875;-64
2023/10/09 08:30:48;;;;;;;7.40;2.70;;;;;;;;;;5063315;28;20478;-64
2023/10/09 08:33:41;;;;;;;6.13;2.17;;;;;;;;;;5071305;28;21002;-64
2023/10/09 08:36:07;;;;;;;9.80;2.07;;;;;;;;;;5060536;28;20442;-63
2023/10/09 08:38:35;;;;;;;10.83;2.63;;;;;;;;;;5059139;28;20443;-64
2023/10/09 08:41:17;;;;;;;5.23;2.07;;;;;;;;;;5056722;28;20442;-64
2023/10/09 08:43:51;;;;;;;7.40;1.90;;;;;;;;;;5059369;28;20483;-64
2023/10/09 08:46:20;;;;;;;4.13;1.20;;;;;;;;;;5055857;28;21023;-64
2023/10/09 08:48:47;;;;;;;2.57;1.30;;;;;;;;;;5062371;28;20452;-64
2023/10/09 08:51:16;;;;;;;4.57;2.53;;;;;;;;;;5069560;28;20456;-63
2023/10/09 08:53:45;;;;;;;5.60;1.70;;;;;;;;;;5055746;28;20478;-64
2023/10/09 08:56:21;;;;;;;7.20;2.30;;;;;;;;;;5053520;28;20466;-64
2023/10/09 08:58:48;;;;;;;3.80;1.60;;;;;;;;;;5057330;28;20808;-64
2023/10/09 09:01:19;;;;;;;2.27;0.97;;;;;;;;;;5058906;28;20454;-64
2023/10/09 09:03:46;;;;;;;2.63;1.30;;;;;;;;;;5062811;28;20482;-65
2023/10/09 09:06:14;;;;;;;4.50;1.17;;;;;;;;;;5062968;28;20453;-65
2023/10/09 09:08:44;;;;;;;3.87;1.53;;;;;;;;;;5064811;28;20459;-65
2023/10/09 09:11:12;;;;;;;3.60;1.57;;;;;;;;;;5065241;28;20552;-66
2023/10/09 09:13:42;;;;;;;4.40;1.70;;;;;;;;;;5061021;28;20461;-65
2023/10/09 09:16:16;;;;;;;5.50;1.90;;;;;;;;;;5055985;28;20553;-65
2023/10/09 09:19:00;;;;;;;4.43;1.53;;;;;;;;;;5053462;28;20452;-66
2023/10/09 09:21:27;;;;;;;3.30;1.20;;;;;;;;;;5054882;28;20940;-65
2023/10/09 09:23:55;;;;;;;7.57;1.53;;;;;;;;;;5059878;28;20486;-65
2023/10/09 09:26:36;;;;;;;6.70;1.47;;;;;;;;;;5071071;28;20456;-63
2023/10/09 09:29:05;;;;;;;5.00;1.90;;;;;;;;;;5059598;28;20507;-65
2023/10/09 09:31:37;;;;;;;5.20;1.70;;;;;;;;;;5064940;28;20476;-65
2023/10/09 09:34:12;;;;;;;3.13;1.60;;;;;;;;;;5064872;28;20496;-65
2023/10/09 09:36:40;;;;;;;2.60;1.40;;;;;;;;;;5059817;28;20457;-66
2023/10/09 09:39:19;;;;;;;5.00;1.73;;;;;;;;;;5064663;28;20543;-65
2023/10/09 09:41:46;;;;;;;9.10;2.37;;;;;;;;;;5060960;28;20470;-66
2023/10/09 09:44:17;;;;;;;2.47;1.27;;;;;;;;;;5059204;28;20482;-65
2023/10/09 09:46:46;;;;;;;5.47;1.87;;;;;;;;;;5062265;28;20498;-65
2023/10/09 09:49:16;;;;;;;6.97;2.20;;;;;;;;;;5067730;28;20545;-65
2023/10/09 09:51:46;;;;;;;3.37;1.70;;;;;;;;;;5064443;28;21207;-65
2023/10/09 09:54:15;;;;;;;6.17;2.10;;;;;;;;;;5066071;28;20528;-65
2023/10/09 09:56:48;;;;;;;2.63;0.93;;;;;;;;;;5064386;28;20444;-66
2023/10/09 09:59:21;;;;;;;2.90;1.43;;;;;;;;;;5076026;28;20529;-64
2023/10/09 10:01:56;;;;;;;4.87;1.93;;;;;;;;;;5073079;28;20823;-64
2023/10/09 10:04:25;;;;;;;9.20;1.70;;;;;;;;;;5060503;28;20527;-64
2023/10/09 10:06:54;;;;;;;3.90;1.90;;;;;;;;;;5062783;28;20508;-64
2023/10/09 10:09:38;;;;;;;9.30;2.70;;;;;;;;;;5061560;28;20889;-64
2023/10/09 10:12:09;;;;;;;5.90;2.77;;;;;;;;;;5065553;28;20453;-63
2023/10/09 10:14:53;;;;;;;6.93;2.20;;;;;;;;;;5061083;28;21018;-65
2023/10/09 10:17:21;;;;;;;4.70;1.80;;;;;;;;;;5056812;28;20454;-64
2023/10/09 10:20:00;;;;;;;6.10;1.60;;;;;;;;;;5061600;28;20464;-64
2023/10/09 10:22:28;;;;;;;4.47;1.80;;;;;;;;;;5068855;28;20537;-65
2023/10/09 10:24:57;;;;;;;9.90;2.90;;;;;;;;;;5067350;28;21010;-64
2023/10/09 10:27:26;;;;;;;7.40;2.20;;;;;;;;;;5068213;28;20582;-64
2023/10/09 10:30:12;;;;;;;6.57;2.00;;;;;;;;;;5062790;28;20454;-64
2023/10/09 10:35:39;;;;;;;7.30;2.30;;;;;;;;;;5054850;28;20620;-65
2023/10/09 10:38:23;;;;;;;6.93;2.03;;;;;;;;;;5055739;28;20474;-65
2023/10/09 10:40:57;;;;;;;6.13;1.87;;;;;;;;;;5045423;28;20443;-65
2023/10/09 10:43:32;;;;;;;3.83;1.67;;;;;;;;;;5044255;28;20478;-65
2023/10/09 10:46:04;;;;;;;6.70;2.90;;;;;;;;;;5048161;28;20857;-65
2023/10/09 10:48:39;;;;;;;7.93;2.00;;;;;;;;;;5048704;28;20484;-65
2023/10/09 10:51:11;;;;;;;4.00;1.63;;;;;;;;;;5039595;28;20454;-65
2023/10/09 10:53:47;;;;;;;8.03;2.47;;;;;;;;;;5044064;28;20490;-65
2023/10/09 10:56:24;;;;;;;12.33;2.27;;;;;;;;;;5049175;28;20511;-65
2023/10/09 10:59:11;;;;;;;6.23;2.43;;;;;;;;;;5037318;28;20542;-66
2023/10/09 11:04:24;;;;;;;5.07;1.90;;;;;;;;;;5039687;28;20466;-64
2023/10/09 11:07:00;;;;;;;7.13;1.93;;;;;;;;;;5052133;28;20446;-65
2023/10/09 11:09:35;;;;;;;4.33;1.80;;;;;;;;;;5050666;28;20462;-68
2023/10/09 11:12:21;;;;;;;6.50;1.47;;;;;;;;;;5041226;28;20446;-65
2023/10/09 11:15:05;;;;;;;8.70;2.00;;;;;;;;;;5049519;28;21071;-65
2023/10/09 11:17:35;;;;;;;3.83;1.30;;;;;;;;;;5067281;28;20460;-66
2023/10/09 11:20:22;;;;;;;5.70;1.80;;;;;;;;;;5053139;28;20464;-64
2023/10/09 11:23:14;;;;;;;7.10;2.13;;;;;;;;;;5056446;28;20501;-66
2023/10/09 11:25:50;;;;;;;3.77;1.70;;;;;;;;;;5051735;28;20479;-66
2023/10/09 11:28:29;;;;;;;5.13;1.77;;;;;;;;;;5051952;28;20443;-65
2023/10/09 11:30:55;;;;;;;4.40;1.83;;;;;;;;;;5042223;28;20441;-64
2023/10/09 11:33:29;;;;;;;3.57;1.90;;;;;;;;;;5040480;28;20443;-63
2023/10/09 11:36:00;;;;;;;4.07;1.60;;;;;;;;;;5052706;28;20462;-66
2023/10/09 11:38:36;;;;;;;8.27;2.33;;;;;;;;;;5046447;28;20454;-64
2023/10/09 11:41:18;;;;;;;5.10;1.47;;;;;;;;;;5042858;28;20458;-65
2023/10/09 11:43:52;;;;;;;7.47;1.30;;;;;;;;;;5049697;28;20476;-66
2023/10/09 11:46:39;;;;;;;10.40;2.30;;;;;;;;;;5033255;28;20444;-65
2023/10/09 11:52:33;;;;;;;4.90;1.57;;;;;;;;;;5026473;28;20474;-66
2023/10/09 11:54:56;;;;;;;4.53;1.70;;;;;;;;;;5032095;28;20478;-64
2023/10/09 11:57:30;;;;;;;8.00;1.90;;;;;;;;;;5031125;28;20455;-65
2023/10/09 11:59:57;;;;;;;4.10;1.83;;;;;;;;;;5033492;28;20509;-65
2023/10/09 12:02:24;;;;;;;2.60;1.33;;;;;;;;;;5031366;28;20843;-65
2023/10/09 12:04:51;;;;;;;6.37;2.57;;;;;;;;;;5028159;28;20478;-65
2023/10/09 12:07:20;;;;;;;4.80;2.10;;;;;;;;;;5031388;28;20448;-65
2023/10/09 12:09:48;;;;;;;10.53;2.43;;;;;;;;;;5039428;28;20487;-65
2023/10/09 12:12:18;;;;;;;4.87;2.17;;;;;;;;;;5044262;28;20900;-65
2023/10/09 12:14:45;;;;;;;8.63;2.20;;;;;;;;;;5035028;28;20493;-65
2023/10/09 12:17:12;;;;;;;7.30;1.90;;;;;;;;;;5033470;28;20448;-65
2023/10/09 12:19:40;;;;;;;5.43;2.50;;;;;;;;;;5026822;28;20451;-65
2023/10/09 12:22:10;;;;;;;5.80;1.70;;;;;;;;;;5036795;28;20486;-65
2023/10/09 12:24:43;;;;;;;3.40;1.83;;;;;;;;;;5039881;28;20483;-65
2023/10/09 12:27:11;;;;;;;3.80;1.73;;;;;;;;;;5029405;28;20454;-66
2023/10/09 12:29:44;;;;;;;3.90;2.30;;;;;;;;;;5037719;28;20443;-65
2023/10/09 12:32:11;;;;;;;8.30;2.07;;;;;;;;;;5032631;28;20495;-66
2023/10/09 12:34:39;;;;;;;5.40;2.10;;;;;;;;;;5035955;28;20483;-65
2023/10/09 12:37:06;;;;;;;5.67;2.23;;;;;;;;;;5024524;28;20873;-67
2023/10/09 12:39:34;;;;;;;6.63;1.87;;;;;;;;;;5022108;28;20455;-65
2023/10/09 12:42:06;;;;;;;10.40;2.73;;;;;;;;;;5034692;28;20972;-65
2023/10/09 12:44:38;;;;;;;4.37;2.57;;;;;;;;;;5024054;28;20846;-65
2023/10/09 12:47:07;;;;;;;7.53;3.03;;;;;;;;;;5038163;28;20786;-65
2023/10/09 12:49:34;;;;;;;5.20;1.90;;;;;;;;;;5023669;28;20840;-65
2023/10/09 12:52:01;;;;;;;10.60;2.60;;;;;;;;;;5029076;28;20462;-65
2023/10/09 12:54:29;;;;;;;4.60;2.30;;;;;;;;;;5021953;28;20484;-66
2023/10/09 12:56:57;;;;;;;4.30;1.93;;;;;;;;;;5023338;28;20467;-65
2023/10/09 12:59:24;;;;;;;4.23;1.90;;;;;;;;;;5030247;28;20883;-65
2023/10/09 13:01:57;;;;;;;3.93;2.37;;;;;;;;;;5030084;28;20451;-65
2023/10/09 13:04:31;;;;;;;4.53;2.27;;;;;;;;;;5024395;28;20475;-65
2023/10/09 13:07:04;;;;;;;4.90;2.60;;;;;;;;;;5027505;28;20460;-64
2023/10/09 13:09:35;;;;;;;5.80;2.40;;;;;;;;;;5029827;28;20820;-65
2023/10/09 13:12:02;;;;;;;6.13;2.60;;;;;;;;;;5037981;28;20463;-65
2023/10/09 13:14:29;;;;;;;6.00;2.17;;;;;;;;;;5027332;28;20486;-65
2023/10/09 13:16:56;;;;;;;6.73;2.27;;;;;;;;;;5038942;28;20526;-65
2023/10/09 13:19:25;;;;;;;4.70;2.40;;;;;;;;;;5031853;28;20532;-63
2023/10/09 13:21:53;;;;;;;6.13;3.00;;;;;;;;;;5026245;28;20463;-64
2023/10/09 13:24:24;;;;;;;6.07;2.30;;;;;;;;;;5035160;28;20490;-64
2023/10/09 13:26:57;;;;;;;5.20;2.33;;;;;;;;;;5035238;28;20455;-64
2023/10/09 13:29:25;;;;;;;6.50;3.03;;;;;;;;;;5033637;28;20988;-64
2023/10/09 13:31:57;;;;;;;4.90;3.17;;;;;;;;;;5043023;28;20447;-66
2023/10/09 13:34:28;;;;;;;5.27;2.93;;;;;;;;;;5040007;28;20494;-65
2023/10/09 13:36:57;;;;;;;6.30;3.20;;;;;;;;;;5035128;28;20494;-65
2023/10/09 13:39:24;;;;;;;7.63;3.17;;;;;;;;;;5031958;28;20470;-65
2023/10/09 13:41:57;;;;;;;5.00;2.90;;;;;;;;;;5027935;28;20467;-65
2023/10/09 13:44:26;;;;;;;8.40;2.90;;;;;;;;;;5035474;28;20470;-66
2023/10/09 13:46:53;;;;;;;6.07;3.47;;;;;;;;;;5040538;28;20445;-66
2023/10/09 13:49:23;;;;;;;5.50;2.10;;;;;;;;;;5049235;28;20460;-66
2023/10/09 13:51:56;;;;;;;8.30;2.97;;;;;;;;;;5029956;28;20462;-65
2023/10/09 13:54:28;;;;;;;9.57;3.07;;;;;;;;;;5036252;28;20483;-66
2023/10/09 13:56:55;;;;;;;6.43;2.43;;;;;;;;;;5025821;28;20540;-65
2023/10/09 13:59:25;;;;;;;4.40;2.60;;;;;;;;;;5027379;28;20979;-68
2023/10/09 14:01:54;;;;;;;7.20;3.60;;;;;;;;;;5024567;28;20538;-68
2023/10/09 14:07:00;;;;;;;6.87;2.77;;;;;;;;;;5092615;22;20494;-70
2023/10/09 14:09:31;;;;;;;5.23;2.60;;;;;;;;;;5023279;28;20919;-70
2023/10/09 14:12:06;;;;;;;6.20;2.83;;;;;;;;;;5033397;28;20468;-70
2023/10/09 14:14:34;;;;;;;4.40;2.53;;;;;;;;;;5024754;28;20959;-70
2023/10/09 14:17:01;;;;;;;5.13;2.37;;;;;;;;;;5004481;28;20550;-69
2023/10/09 14:19:33;;;;;;;6.93;3.37;;;;;;;;;;5011852;28;20846;-70
2023/10/09 14:22:05;;;;;;;5.90;2.20;;;;;;;;;;5009745;28;20447;-69
2023/10/09 14:24:34;;;;;;;6.00;3.50;;;;;;;;;;5016573;28;20478;-69
2023/10/09 14:27:04;;;;;;;5.90;2.93;;;;;;;;;;5011682;28;20463;-69
2023/10/09 14:29:31;;;;;;;9.67;5.53;;;;;;;;;;5007012;28;20456;-69
2023/10/09 14:32:00;;;;;;;5.67;3.03;;;;;;;;;;5008000;28;20631;-69
2023/10/09 14:34:32;;;;;;;5.40;3.20;;;;;;;;;;5016824;28;20472;-69
2023/10/09 14:37:00;;;;;;;8.13;2.97;;;;;;;;;;5007792;28;20563;-69
2023/10/09 14:39:29;;;;;;;6.90;3.10;;;;;;;;;;5004722;28;20854;-69
2023/10/09 14:41:57;;;;;;;14.77;5.90;;;;;;;;;;5004522;28;20492;-69
2023/10/09 14:44:24;;;;;;;7.10;2.90;;;;;;;;;;5007903;28;20504;-69
2023/10/09 14:46:51;;;;;;;6.67;2.50;;;;;;;;;;5013770;28;20460;-68
2023/10/09 14:49:21;;;;;;;7.87;2.93;;;;;;;;;;5008054;28;20463;-69
2023/10/09 14:51:50;;;;;;;4.90;2.53;;;;;;;;;;5003625;28;20459;-68
2023/10/09 14:54:18;;;;;;;7.13;3.07;;;;;;;;;;5014073;28;20468;-68
2023/10/09 14:56:50;;;;;;;5.40;2.60;;;;;;;;;;5007334;28;20547;-69
2023/10/09 14:59:19;;;;;;;7.10;3.23;;;;;;;;;;4996355;28;20449;-68
2023/10/09 15:01:47;;;;;;;7.30;2.80;;;;;;;;;;5003687;28;20451;-69
2023/10/09 15:04:15;;;;;;;8.17;3.67;;;;;;;;;;5009284;28;20487;-69
2023/10/09 15:06:42;;;;;;;5.53;2.73;;;;;;;;;;5016330;28;20471;-69
2023/10/09 15:09:14;;;;;;;8.60;3.40;;;;;;;;;;5006989;28;20455;-68
2023/10/09 15:11:41;;;;;;;4.67;2.50;;;;;;;;;;5004401;28;20575;-69
2023/10/09 15:14:09;;;;;;;6.80;2.83;;;;;;;;;;5015357;28;20479;-69
2023/10/09 15:16:38;;;;;;;6.80;3.50;;;;;;;;;;5014674;28;20484;-69
2023/10/09 15:19:06;;;;;;;6.53;2.97;;;;;;;;;;5006894;28;20463;-68
2023/10/09 15:21:34;;;;;;;7.10;3.40;;;;;;;;;;5007880;28;20538;-69
2023/10/09 15:24:01;;;;;;;10.30;4.67;;;;;;;;;;5017414;28;20985;-70
2023/10/09 15:26:32;;;;;;;9.60;3.00;;;;;;;;;;5008568;28;20509;-68
2023/10/09 15:29:03;;;;;;;10.40;4.27;;;;;;;;;;5017595;28;20998;-68
2023/10/09 15:31:32;;;;;;;6.90;3.70;;;;;;;;;;5013746;28;20462;-69
2023/10/09 15:33:59;;;;;;;5.10;2.83;;;;;;;;;;5017583;28;20475;-71
2023/10/09 15:36:28;;;;;;;7.37;2.50;;;;;;;;;;5019087;28;20523;-72
2023/10/09 15:38:59;;;;;;;8.10;5.07;;;;;;;;;;5002081;28;20460;-71
2023/10/09 15:41:29;;;;;;;8.47;4.23;;;;;;;;;;5002963;28;20452;-72
2023/10/09 15:43:58;;;;;;;5.63;2.80;;;;;;;;;;5018184;28;20908;-71
2023/10/09 15:46:25;;;;;;;7.73;3.30;;;;;;;;;;5003895;28;20464;-71
2023/10/09 15:48:55;;;;;;;4.60;2.30;;;;;;;;;;5009216;28;20517;-71
2023/10/09 15:51:23;;;;;;;5.80;2.80;;;;;;;;;;5007936;28;20480;-71
2023/10/09 15:53:51;;;;;;;5.13;3.07;;;;;;;;;;5023204;28;20479;-71
2023/10/09 15:56:20;;;;;;;8.90;2.87;;;;;;;;;;5004028;28;20484;-71
2023/10/09 15:58:48;;;;;;;7.87;3.27;;;;;;;;;;5013833;28;20546;-71
2023/10/09 16:01:18;;;;;;;5.60;2.60;;;;;;;;;;5016042;28;20448;-71
2023/10/09 16:03:47;;;;;;;8.37;3.00;;;;;;;;;;5017057;28;20486;-71
2023/10/09 16:06:16;;;;;;;6.27;2.83;;;;;;;;;;5003558;28;20526;-71
2023/10/09 16:08:45;;;;;;;5.00;2.40;;;;;;;;;;5004321;28;20559;-71
2023/10/09 16:11:14;;;;;;;5.40;2.43;;;;;;;;;;4987118;28;20460;-71
2023/10/09 16:13:42;;;;;;;7.47;3.30;;;;;;;;;;5010264;28;20671;-72